sensor_id;sensor_type;location;lat;lon;timestamp;P1;durP1;ratioP1;P2;durP2;ratioP2
20857;SDS011;10589;53.636;10.012;2023-04-25T03:46:11;25.83;;;4.73;;
20857;SDS011;10589;53.636;10.012;2023-04-25T03:48:36;21.17;;;3.93;;
20857;SDS011;10589;53.636;10.012;2023-04-25T03:51:02;24.60;;;4.70;;
20857;SDS011;10589;53.636;10.012;2023-04-25T03:53:28;21.43;;;4.80;;
20857;SDS011;10589;53.636;10.012;2023-04-25T03:55:53;22.60;;;3.87;;
20857;SDS011;10589;53.636;10.012;2023-04-25T03:58:19;21.97;;;4.50;;
20857;SDS011;10589;53.636;10.012;2023-04-25T04:00:44;15.43;;;3.90;;
20857;SDS011;10589;53.636;10.012;2023-04-25T04:03:10;15.03;;;3.50;;
20857;SDS011;10589;53.636;10.012;2023-04-25T04:05:36;16.47;;;4.33;;
20857;SDS011;10589;53.636;10.012;2023-04-25T04:08:02;18.37;;;4.10;;
20857;SDS011;10589;53.636;10.012;2023-04-25T04:10:27;23.20;;;4.23;;
20857;SDS011;10589;53.636;10.012;2023-04-25T04:12:53;19.43;;;3.73;;
20857;SDS011;10589;53.636;10.012;2023-04-25T04:15:19;15.80;;;3.87;;
20857;SDS011;10589;53.636;10.012;2023-04-25T04:17:44;20.57;;;4.20;;
20857;SDS011;10589;53.636;10.012;2023-04-25T04:20:11;18.03;;;3.73;;
20857;SDS011;10589;53.636;10.012;2023-04-25T04:22:37;19.20;;;3.70;;
20857;SDS011;10589;53.636;10.012;2023-04-25T04:25:03;16.20;;;4.30;;
20857;SDS011;10589;53.636;10.012;2023-04-25T04:27:30;19.33;;;3.93;;
20857;SDS011;10589;53.636;10.012;2023-04-25T04:29:56;14.03;;;3.90;;
20857;SDS011;10589;53.636;10.012;2023-04-25T04:32:22;15.10;;;3.53;;
20857;SDS011;10589;53.636;10.012;2023-04-25T04:34:48;20.67;;;4.13;;
20857;SDS011;10589;53.636;10.012;2023-04-25T04:37:14;17.93;;;3.77;;
20857;SDS011;10589;53.636;10.012;2023-04-25T04:39:40;18.60;;;3.23;;
20857;SDS011;10589;53.636;10.012;2023-04-25T04:42:05;19.57;;;4.07;;
20857;SDS011;10589;53.636;10.012;2023-04-25T04:44:31;16.47;;;3.33;;
20857;SDS011;10589;53.636;10.012;2023-04-25T04:46:58;15.13;;;3.60;;
20857;SDS011;10589;53.636;10.012;2023-04-25T04:49:24;17.33;;;3.90;;
20857;SDS011;10589;53.636;10.012;2023-04-25T04:51:50;13.50;;;3.10;;
20857;SDS011;10589;53.636;10.012;2023-04-25T04:54:15;17.93;;;3.43;;
20857;SDS011;10589;53.636;10.012;2023-04-25T04:56:41;16.97;;;3.97;;
20857;SDS011;10589;53.636;10.012;2023-04-25T04:59:07;13.63;;;2.77;;
20857;SDS011;10589;53.636;10.012;2023-04-25T05:01:32;16.00;;;3.00;;
20857;SDS011;10589;53.636;10.012;2023-04-25T05:04:00;13.13;;;2.67;;
20857;SDS011;10589;53.636;10.012;2023-04-25T05:06:26;13.90;;;3.20;;
20857;SDS011;10589;53.636;10.012;2023-04-25T05:08:54;11.97;;;2.80;;
20857;SDS011;10589;53.636;10.012;2023-04-25T05:11:20;17.70;;;3.37;;
20857;SDS011;10589;53.636;10.012;2023-04-25T05:13:46;15.40;;;2.83;;
20857;SDS011;10589;53.636;10.012;2023-04-25T05:16:12;11.87;;;2.50;;
20857;SDS011;10589;53.636;10.012;2023-04-25T05:18:38;16.10;;;4.07;;
20857;SDS011;10589;53.636;10.012;2023-04-25T05:21:04;20.37;;;3.40;;
20857;SDS011;10589;53.636;10.012;2023-04-25T05:23:30;10.83;;;2.70;;
20857;SDS011;10589;53.636;10.012;2023-04-25T05:25:57;14.07;;;2.90;;
20857;SDS011;10589;53.636;10.012;2023-04-25T05:28:23;20.37;;;3.10;;
20857;SDS011;10589;53.636;10.012;2023-04-25T05:30:49;14.23;;;3.07;;
20857;SDS011;10589;53.636;10.012;2023-04-25T05:33:15;14.90;;;2.73;;
20857;SDS011;10589;53.636;10.012;2023-04-25T05:35:41;11.63;;;2.43;;
20857;SDS011;10589;53.636;10.012;2023-04-25T05:38:06;12.63;;;3.20;;
20857;SDS011;10589;53.636;10.012;2023-04-25T05:40:32;17.27;;;3.03;;
20857;SDS011;10589;53.636;10.012;2023-04-25T05:42:58;16.37;;;3.23;;
20857;SDS011;10589;53.636;10.012;2023-04-25T05:45:23;13.33;;;2.83;;
20857;SDS011;10589;53.636;10.012;2023-04-25T05:47:49;15.97;;;2.70;;
20857;SDS011;10589;53.636;10.012;2023-04-25T05:50:15;12.13;;;3.13;;
20857;SDS011;10589;53.636;10.012;2023-04-25T05:52:40;20.73;;;3.30;;
20857;SDS011;10589;53.636;10.012;2023-04-25T05:55:06;9.30;;;3.10;;
20857;SDS011;10589;53.636;10.012;2023-04-25T05:57:32;16.00;;;2.97;;
20857;SDS011;10589;53.636;10.012;2023-04-25T05:59:57;14.80;;;3.20;;
20857;SDS011;10589;53.636;10.012;2023-04-25T06:02:23;11.60;;;2.80;;
20857;SDS011;10589;53.636;10.012;2023-04-25T06:04:49;15.03;;;3.13;;
20857;SDS011;10589;53.636;10.012;2023-04-25T06:07:15;13.83;;;2.50;;
20857;SDS011;10589;53.636;10.012;2023-04-25T06:09:41;12.37;;;2.50;;
20857;SDS011;10589;53.636;10.012;2023-04-25T06:12:07;13.07;;;3.23;;
20857;SDS011;10589;53.636;10.012;2023-04-25T06:14:33;13.00;;;2.87;;
20857;SDS011;10589;53.636;10.012;2023-04-25T06:16:59;14.60;;;3.30;;
20857;SDS011;10589;53.636;10.012;2023-04-25T06:19:31;13.07;;;2.57;;
20857;SDS011;10589;53.636;10.012;2023-04-25T06:22:00;12.47;;;3.13;;
20857;SDS011;10589;53.636;10.012;2023-04-25T06:24:26;17.43;;;3.17;;
20857;SDS011;10589;53.636;10.012;2023-04-25T06:26:52;16.40;;;2.27;;
20857;SDS011;10589;53.636;10.012;2023-04-25T06:29:18;15.13;;;3.30;;
20857;SDS011;10589;53.636;10.012;2023-04-25T06:31:43;8.70;;;2.50;;
20857;SDS011;10589;53.636;10.012;2023-04-25T06:34:09;14.40;;;3.00;;
20857;SDS011;10589;53.636;10.012;2023-04-25T06:36:35;12.00;;;2.50;;
20857;SDS011;10589;53.636;10.012;2023-04-25T06:39:00;13.83;;;2.40;;
20857;SDS011;10589;53.636;10.012;2023-04-25T06:41:27;13.63;;;3.00;;
20857;SDS011;10589;53.636;10.012;2023-04-25T06:43:52;10.77;;;2.60;;
20857;SDS011;10589;53.636;10.012;2023-04-25T06:46:18;11.57;;;3.00;;
20857;SDS011;10589;53.636;10.012;2023-04-25T06:48:43;13.47;;;2.67;;
20857;SDS011;10589;53.636;10.012;2023-04-25T06:51:09;10.90;;;2.60;;
20857;SDS011;10589;53.636;10.012;2023-04-25T06:53:35;11.63;;;2.37;;
20857;SDS011;10589;53.636;10.012;2023-04-25T06:56:01;8.97;;;2.27;;
20857;SDS011;10589;53.636;10.012;2023-04-25T06:58:26;12.57;;;2.53;;
20857;SDS011;10589;53.636;10.012;2023-04-25T07:00:52;16.00;;;2.83;;
20857;SDS011;10589;53.636;10.012;2023-04-25T07:03:18;10.97;;;2.40;;
20857;SDS011;10589;53.636;10.012;2023-04-25T07:05:44;13.63;;;2.60;;
20857;SDS011;10589;53.636;10.012;2023-04-25T07:08:10;12.83;;;2.57;;
20857;SDS011;10589;53.636;10.012;2023-04-25T07:10:36;13.60;;;2.73;;
20857;SDS011;10589;53.636;10.012;2023-04-25T07:13:02;11.23;;;2.63;;
20857;SDS011;10589;53.636;10.012;2023-04-25T07:15:27;12.97;;;2.10;;
20857;SDS011;10589;53.636;10.012;2023-04-25T07:17:53;9.27;;;2.10;;
20857;SDS011;10589;53.636;10.012;2023-04-25T07:20:19;8.87;;;1.90;;
20857;SDS011;10589;53.636;10.012;2023-04-25T07:22:44;8.53;;;1.87;;
20857;SDS011;10589;53.636;10.012;2023-04-25T07:25:10;11.47;;;2.30;;
20857;SDS011;10589;53.636;10.012;2023-04-25T07:27:36;5.73;;;2.03;;
20857;SDS011;10589;53.636;10.012;2023-04-25T07:30:02;12.60;;;2.40;;
20857;SDS011;10589;53.636;10.012;2023-04-25T07:32:29;15.37;;;2.00;;
20857;SDS011;10589;53.636;10.012;2023-04-25T07:34:54;13.47;;;2.20;;
20857;SDS011;10589;53.636;10.012;2023-04-25T07:37:20;14.27;;;2.20;;
20857;SDS011;10589;53.636;10.012;2023-04-25T07:39:46;6.53;;;1.87;;
20857;SDS011;10589;53.636;10.012;2023-04-25T07:42:12;11.17;;;2.30;;
20857;SDS011;10589;53.636;10.012;2023-04-25T07:44:38;10.33;;;2.27;;
20857;SDS011;10589;53.636;10.012;2023-04-25T07:47:05;12.97;;;2.57;;
20857;SDS011;10589;53.636;10.012;2023-04-25T07:49:34;14.57;;;2.20;;
20857;SDS011;10589;53.636;10.012;2023-04-25T07:52:01;14.93;;;2.13;;
20857;SDS011;10589;53.636;10.012;2023-04-25T07:54:29;14.60;;;3.20;;
20857;SDS011;10589;53.636;10.012;2023-04-25T07:56:54;13.97;;;2.37;;
20857;SDS011;10589;53.636;10.012;2023-04-25T07:59:20;9.50;;;2.37;;
20857;SDS011;10589;53.636;10.012;2023-04-25T08:01:46;13.30;;;2.70;;
20857;SDS011;10589;53.636;10.012;2023-04-25T08:04:12;10.70;;;2.27;;
20857;SDS011;10589;53.636;10.012;2023-04-25T08:06:38;13.73;;;2.37;;
20857;SDS011;10589;53.636;10.012;2023-04-25T08:09:04;12.47;;;2.27;;
20857;SDS011;10589;53.636;10.012;2023-04-25T08:11:29;11.73;;;2.10;;
20857;SDS011;10589;53.636;10.012;2023-04-25T08:13:55;11.17;;;2.10;;
20857;SDS011;10589;53.636;10.012;2023-04-25T08:16:20;13.17;;;2.23;;
20857;SDS011;10589;53.636;10.012;2023-04-25T08:18:46;13.17;;;2.50;;
20857;SDS011;10589;53.636;10.012;2023-04-25T08:21:12;7.47;;;1.90;;
20857;SDS011;10589;53.636;10.012;2023-04-25T08:23:48;6.00;;;1.00;;
20857;SDS011;10589;53.636;10.012;2023-04-25T08:26:13;8.47;;;1.27;;
20857;SDS011;10589;53.636;10.012;2023-04-25T08:28:39;10.10;;;1.80;;
20857;SDS011;10589;53.636;10.012;2023-04-25T08:31:05;6.57;;;1.30;;
20857;SDS011;10589;53.636;10.012;2023-04-25T08:33:31;7.13;;;1.97;;
20857;SDS011;10589;53.636;10.012;2023-04-25T08:35:57;9.57;;;1.93;;
20857;SDS011;10589;53.636;10.012;2023-04-25T08:38:24;10.70;;;1.93;;
20857;SDS011;10589;53.636;10.012;2023-04-25T08:40:50;8.10;;;2.20;;
20857;SDS011;10589;53.636;10.012;2023-04-25T08:43:19;10.93;;;2.13;;
20857;SDS011;10589;53.636;10.012;2023-04-25T08:45:45;11.30;;;2.53;;
20857;SDS011;10589;53.636;10.012;2023-04-25T08:48:12;17.53;;;2.50;;
20857;SDS011;10589;53.636;10.012;2023-04-25T08:50:47;12.83;;;2.30;;
20857;SDS011;10589;53.636;10.012;2023-04-25T08:53:16;18.07;;;2.77;;
20857;SDS011;10589;53.636;10.012;2023-04-25T08:55:46;14.30;;;2.60;;
20857;SDS011;10589;53.636;10.012;2023-04-25T08:58:13;11.00;;;2.63;;
20857;SDS011;10589;53.636;10.012;2023-04-25T09:00:39;12.20;;;2.70;;
20857;SDS011;10589;53.636;10.012;2023-04-25T09:03:05;13.37;;;2.77;;
20857;SDS011;10589;53.636;10.012;2023-04-25T09:05:34;19.57;;;3.37;;
20857;SDS011;10589;53.636;10.012;2023-04-25T09:08:00;7.30;;;2.20;;
20857;SDS011;10589;53.636;10.012;2023-04-25T09:10:27;14.13;;;2.37;;
20857;SDS011;10589;53.636;10.012;2023-04-25T09:13:05;12.37;;;2.13;;
20857;SDS011;10589;53.636;10.012;2023-04-25T09:15:58;9.20;;;1.43;;
20857;SDS011;10589;53.636;10.012;2023-04-25T09:18:28;10.57;;;1.60;;
20857;SDS011;10589;53.636;10.012;2023-04-25T09:21:04;8.90;;;1.50;;
20857;SDS011;10589;53.636;10.012;2023-04-25T09:23:30;8.03;;;1.97;;
20857;SDS011;10589;53.636;10.012;2023-04-25T09:26:03;9.00;;;2.10;;
20857;SDS011;10589;53.636;10.012;2023-04-25T09:28:31;9.47;;;1.53;;
20857;SDS011;10589;53.636;10.012;2023-04-25T09:30:57;5.90;;;1.53;;
20857;SDS011;10589;53.636;10.012;2023-04-25T09:33:27;9.07;;;1.70;;
20857;SDS011;10589;53.636;10.012;2023-04-25T09:35:56;9.13;;;2.07;;
20857;SDS011;10589;53.636;10.012;2023-04-25T09:38:49;11.97;;;3.10;;
20857;SDS011;10589;53.636;10.012;2023-04-25T09:41:15;12.00;;;2.07;;
20857;SDS011;10589;53.636;10.012;2023-04-25T09:43:50;9.60;;;1.23;;
20857;SDS011;10589;53.636;10.012;2023-04-25T09:46:16;8.13;;;1.50;;
20857;SDS011;10589;53.636;10.012;2023-04-25T09:48:49;7.77;;;1.50;;
20857;SDS011;10589;53.636;10.012;2023-04-25T09:51:15;9.70;;;1.60;;
20857;SDS011;10589;53.636;10.012;2023-04-25T09:53:42;7.90;;;1.80;;
20857;SDS011;10589;53.636;10.012;2023-04-25T09:56:11;8.33;;;1.67;;
20857;SDS011;10589;53.636;10.012;2023-04-25T09:58:38;12.47;;;2.20;;
20857;SDS011;10589;53.636;10.012;2023-04-25T10:01:09;13.73;;;1.93;;
20857;SDS011;10589;53.636;10.012;2023-04-25T10:03:36;8.30;;;2.03;;
20857;SDS011;10589;53.636;10.012;2023-04-25T10:06:13;8.20;;;1.70;;
20857;SDS011;10589;53.636;10.012;2023-04-25T10:08:44;15.30;;;2.30;;
20857;SDS011;10589;53.636;10.012;2023-04-25T10:11:10;12.03;;;2.70;;
20857;SDS011;10589;53.636;10.012;2023-04-25T10:13:39;4.70;;;1.40;;
20857;SDS011;10589;53.636;10.012;2023-04-25T10:16:06;11.73;;;1.70;;
20857;SDS011;10589;53.636;10.012;2023-04-25T10:18:32;9.50;;;1.47;;
20857;SDS011;10589;53.636;10.012;2023-04-25T10:20:59;6.00;;;1.30;;
20857;SDS011;10589;53.636;10.012;2023-04-25T10:23:25;5.87;;;1.63;;
20857;SDS011;10589;53.636;10.012;2023-04-25T10:25:52;9.97;;;1.43;;
20857;SDS011;10589;53.636;10.012;2023-04-25T10:28:18;6.73;;;1.00;;
20857;SDS011;10589;53.636;10.012;2023-04-25T10:30:57;6.20;;;0.97;;
20857;SDS011;10589;53.636;10.012;2023-04-25T10:33:33;7.73;;;1.50;;
20857;SDS011;10589;53.636;10.012;2023-04-25T10:36:13;5.53;;;1.20;;
20857;SDS011;10589;53.636;10.012;2023-04-25T10:38:44;4.90;;;1.43;;
20857;SDS011;10589;53.636;10.012;2023-04-25T10:41:11;6.27;;;1.30;;
20857;SDS011;10589;53.636;10.012;2023-04-25T10:43:38;8.43;;;1.80;;
20857;SDS011;10589;53.636;10.012;2023-04-25T10:48:47;10.17;;;1.90;;
20857;SDS011;10589;53.636;10.012;2023-04-25T10:56:21;10.93;;;1.73;;
20857;SDS011;10589;53.636;10.012;2023-04-25T11:01:35;9.37;;;1.23;;
20857;SDS011;10589;53.636;10.012;2023-04-25T11:06:51;7.10;;;1.13;;
20857;SDS011;10589;53.636;10.012;2023-04-25T11:09:20;10.23;;;1.40;;
20857;SDS011;10589;53.636;10.012;2023-04-25T11:11:55;10.33;;;1.60;;
20857;SDS011;10589;53.636;10.012;2023-04-25T11:14:21;6.23;;;0.93;;
20857;SDS011;10589;53.636;10.012;2023-04-25T11:16:52;3.13;;;0.70;;
20857;SDS011;10589;53.636;10.012;2023-04-25T11:19:21;6.07;;;1.30;;
20857;SDS011;10589;53.636;10.012;2023-04-25T11:21:48;6.37;;;1.53;;
20857;SDS011;10589;53.636;10.012;2023-04-25T11:24:15;6.63;;;1.10;;
20857;SDS011;10589;53.636;10.012;2023-04-25T11:26:42;6.30;;;1.17;;
20857;SDS011;10589;53.636;10.012;2023-04-25T11:29:16;4.93;;;0.90;;
20857;SDS011;10589;53.636;10.012;2023-04-25T11:31:45;7.53;;;1.30;;
20857;SDS011;10589;53.636;10.012;2023-04-25T11:34:10;10.87;;;1.77;;
20857;SDS011;10589;53.636;10.012;2023-04-25T11:36:36;11.13;;;1.27;;
20857;SDS011;10589;53.636;10.012;2023-04-25T11:39:03;9.93;;;1.23;;
20857;SDS011;10589;53.636;10.012;2023-04-25T11:41:31;6.27;;;1.17;;
20857;SDS011;10589;53.636;10.012;2023-04-25T11:43:56;11.47;;;1.27;;
20857;SDS011;10589;53.636;10.012;2023-04-25T11:46:22;9.07;;;1.80;;
20857;SDS011;10589;53.636;10.012;2023-04-25T11:48:47;5.60;;;1.10;;
20857;SDS011;10589;53.636;10.012;2023-04-25T11:51:15;4.80;;;1.20;;
20857;SDS011;10589;53.636;10.012;2023-04-25T11:53:41;5.80;;;0.83;;
20857;SDS011;10589;53.636;10.012;2023-04-25T11:56:09;8.47;;;1.20;;
20857;SDS011;10589;53.636;10.012;2023-04-25T11:58:53;5.47;;;1.07;;
20857;SDS011;10589;53.636;10.012;2023-04-25T12:03:56;8.10;;;1.10;;
20857;SDS011;10589;53.636;10.012;2023-04-25T12:06:26;5.17;;;0.83;;
20857;SDS011;10589;53.636;10.012;2023-04-25T12:09:01;4.53;;;0.77;;
20857;SDS011;10589;53.636;10.012;2023-04-25T12:11:29;7.73;;;1.17;;
20857;SDS011;10589;53.636;10.012;2023-04-25T12:14:01;8.70;;;1.20;;
20857;SDS011;10589;53.636;10.012;2023-04-25T12:16:28;4.90;;;0.80;;
20857;SDS011;10589;53.636;10.012;2023-04-25T12:18:54;9.30;;;1.20;;
20857;SDS011;10589;53.636;10.012;2023-04-25T12:21:22;11.97;;;1.27;;
20857;SDS011;10589;53.636;10.012;2023-04-25T12:23:47;6.13;;;1.10;;
20857;SDS011;10589;53.636;10.012;2023-04-25T12:26:17;10.47;;;1.23;;
20857;SDS011;10589;53.636;10.012;2023-04-25T12:28:45;7.07;;;1.10;;
20857;SDS011;10589;53.636;10.012;2023-04-25T12:31:13;5.80;;;0.90;;
20857;SDS011;10589;53.636;10.012;2023-04-25T12:33:40;4.27;;;0.70;;
20857;SDS011;10589;53.636;10.012;2023-04-25T12:36:07;7.43;;;0.97;;
20857;SDS011;10589;53.636;10.012;2023-04-25T12:38:37;6.07;;;1.20;;
20857;SDS011;10589;53.636;10.012;2023-04-25T12:41:04;8.03;;;1.10;;
20857;SDS011;10589;53.636;10.012;2023-04-25T12:43:29;6.87;;;1.40;;
20857;SDS011;10589;53.636;10.012;2023-04-25T12:45:55;5.93;;;1.10;;
20857;SDS011;10589;53.636;10.012;2023-04-25T12:48:21;5.27;;;0.87;;
20857;SDS011;10589;53.636;10.012;2023-04-25T12:50:49;5.40;;;1.20;;
20857;SDS011;10589;53.636;10.012;2023-04-25T12:53:16;7.93;;;1.30;;
20857;SDS011;10589;53.636;10.012;2023-04-25T12:55:46;5.40;;;1.40;;
20857;SDS011;10589;53.636;10.012;2023-04-25T12:58:12;4.90;;;1.10;;
20857;SDS011;10589;53.636;10.012;2023-04-25T13:00:39;4.20;;;0.90;;
20857;SDS011;10589;53.636;10.012;2023-04-25T13:03:05;5.80;;;1.03;;
20857;SDS011;10589;53.636;10.012;2023-04-25T13:05:31;4.03;;;0.80;;
20857;SDS011;10589;53.636;10.012;2023-04-25T13:07:56;4.73;;;1.10;;
20857;SDS011;10589;53.636;10.012;2023-04-25T13:10:22;4.97;;;1.10;;
20857;SDS011;10589;53.636;10.012;2023-04-25T13:12:48;5.60;;;1.00;;
20857;SDS011;10589;53.636;10.012;2023-04-25T13:15:13;4.80;;;0.93;;
20857;SDS011;10589;53.636;10.012;2023-04-25T13:17:40;6.77;;;1.10;;
20857;SDS011;10589;53.636;10.012;2023-04-25T13:20:06;4.70;;;1.10;;
20857;SDS011;10589;53.636;10.012;2023-04-25T13:22:37;5.17;;;1.50;;
20857;SDS011;10589;53.636;10.012;2023-04-25T13:25:03;2.50;;;1.00;;
20857;SDS011;10589;53.636;10.012;2023-04-25T13:27:30;5.80;;;1.33;;
20857;SDS011;10589;53.636;10.012;2023-04-25T13:29:57;6.13;;;1.43;;
20857;SDS011;10589;53.636;10.012;2023-04-25T13:32:23;5.60;;;1.20;;
20857;SDS011;10589;53.636;10.012;2023-04-25T13:34:49;3.80;;;0.80;;
20857;SDS011;10589;53.636;10.012;2023-04-25T13:37:15;6.43;;;1.30;;
20857;SDS011;10589;53.636;10.012;2023-04-25T13:39:41;5.43;;;1.37;;
20857;SDS011;10589;53.636;10.012;2023-04-25T13:42:06;4.90;;;1.30;;
20857;SDS011;10589;53.636;10.012;2023-04-25T13:44:32;5.87;;;1.50;;
20857;SDS011;10589;53.636;10.012;2023-04-25T13:46:57;5.13;;;1.03;;
20857;SDS011;10589;53.636;10.012;2023-04-25T13:49:25;6.20;;;1.53;;
20857;SDS011;10589;53.636;10.012;2023-04-25T13:51:51;7.13;;;1.40;;
20857;SDS011;10589;53.636;10.012;2023-04-25T13:54:16;4.90;;;0.80;;
20857;SDS011;10589;53.636;10.012;2023-04-25T13:56:42;6.17;;;1.33;;
20857;SDS011;10589;53.636;10.012;2023-04-25T13:59:08;6.80;;;1.50;;
20857;SDS011;10589;53.636;10.012;2023-04-25T14:01:33;3.67;;;1.33;;
20857;SDS011;10589;53.636;10.012;2023-04-25T14:04:01;6.73;;;1.30;;
20857;SDS011;10589;53.636;10.012;2023-04-25T14:06:28;6.93;;;1.13;;
20857;SDS011;10589;53.636;10.012;2023-04-25T14:08:54;9.23;;;1.50;;
20857;SDS011;10589;53.636;10.012;2023-04-25T14:11:19;6.17;;;1.60;;
20857;SDS011;10589;53.636;10.012;2023-04-25T14:13:45;6.27;;;1.00;;
20857;SDS011;10589;53.636;10.012;2023-04-25T14:16:11;6.03;;;1.10;;
20857;SDS011;10589;53.636;10.012;2023-04-25T14:18:36;6.17;;;1.20;;
20857;SDS011;10589;53.636;10.012;2023-04-25T14:21:02;4.30;;;0.90;;
20857;SDS011;10589;53.636;10.012;2023-04-25T14:23:28;4.57;;;1.23;;
20857;SDS011;10589;53.636;10.012;2023-04-25T14:25:53;6.80;;;1.30;;
20857;SDS011;10589;53.636;10.012;2023-04-25T14:28:19;4.10;;;1.30;;
20857;SDS011;10589;53.636;10.012;2023-04-25T14:30:45;8.27;;;1.60;;
20857;SDS011;10589;53.636;10.012;2023-04-25T14:33:10;6.80;;;1.20;;
20857;SDS011;10589;53.636;10.012;2023-04-25T14:35:36;5.20;;;1.30;;
20857;SDS011;10589;53.636;10.012;2023-04-25T14:38:02;5.37;;;1.00;;
20857;SDS011;10589;53.636;10.012;2023-04-25T14:40:28;5.00;;;0.90;;
20857;SDS011;10589;53.636;10.012;2023-04-25T14:42:54;5.80;;;1.07;;
20857;SDS011;10589;53.636;10.012;2023-04-25T14:45:19;8.27;;;1.40;;
20857;SDS011;10589;53.636;10.012;2023-04-25T14:47:45;7.83;;;1.47;;
20857;SDS011;10589;53.636;10.012;2023-04-25T14:50:11;6.00;;;1.13;;
20857;SDS011;10589;53.636;10.012;2023-04-25T14:52:37;6.43;;;1.20;;
20857;SDS011;10589;53.636;10.012;2023-04-25T14:55:03;5.37;;;1.20;;
20857;SDS011;10589;53.636;10.012;2023-04-25T14:57:32;8.07;;;1.57;;
20857;SDS011;10589;53.636;10.012;2023-04-25T14:59:58;4.73;;;0.93;;
20857;SDS011;10589;53.636;10.012;2023-04-25T15:02:24;4.33;;;1.23;;
20857;SDS011;10589;53.636;10.012;2023-04-25T15:04:51;7.03;;;1.30;;
20857;SDS011;10589;53.636;10.012;2023-04-25T15:07:16;6.53;;;1.67;;
20857;SDS011;10589;53.636;10.012;2023-04-25T15:09:42;7.63;;;1.83;;
20857;SDS011;10589;53.636;10.012;2023-04-25T15:12:08;6.93;;;1.30;;
20857;SDS011;10589;53.636;10.012;2023-04-25T15:14:34;4.33;;;1.10;;
20857;SDS011;10589;53.636;10.012;2023-04-25T15:17:00;5.60;;;1.10;;
20857;SDS011;10589;53.636;10.012;2023-04-25T15:19:25;5.03;;;1.07;;
20857;SDS011;10589;53.636;10.012;2023-04-25T15:21:51;3.33;;;0.87;;
20857;SDS011;10589;53.636;10.012;2023-04-25T15:24:17;3.73;;;0.90;;
20857;SDS011;10589;53.636;10.012;2023-04-25T15:26:43;4.37;;;1.13;;
20857;SDS011;10589;53.636;10.012;2023-04-25T15:29:10;3.93;;;1.30;;
20857;SDS011;10589;53.636;10.012;2023-04-25T15:31:36;4.43;;;0.90;;
20857;SDS011;10589;53.636;10.012;2023-04-25T15:34:02;7.00;;;1.40;;
20857;SDS011;10589;53.636;10.012;2023-04-25T15:36:28;4.20;;;1.10;;
20857;SDS011;10589;53.636;10.012;2023-04-25T15:38:55;7.50;;;0.90;;
20857;SDS011;10589;53.636;10.012;2023-04-25T15:41:20;5.37;;;1.30;;
20857;SDS011;10589;53.636;10.012;2023-04-25T15:43:46;6.07;;;1.20;;
20857;SDS011;10589;53.636;10.012;2023-04-25T15:46:13;9.33;;;1.60;;
20857;SDS011;10589;53.636;10.012;2023-04-25T15:48:38;7.53;;;1.97;;
20857;SDS011;10589;53.636;10.012;2023-04-25T15:51:04;9.10;;;1.33;;
20857;SDS011;10589;53.636;10.012;2023-04-25T15:53:30;6.30;;;0.90;;
20857;SDS011;10589;53.636;10.012;2023-04-25T15:55:56;6.00;;;1.07;;
20857;SDS011;10589;53.636;10.012;2023-04-25T15:58:21;4.50;;;1.20;;
20857;SDS011;10589;53.636;10.012;2023-04-25T16:00:47;5.53;;;1.27;;
20857;SDS011;10589;53.636;10.012;2023-04-25T16:03:15;3.27;;;0.90;;
20857;SDS011;10589;53.636;10.012;2023-04-25T16:05:40;4.67;;;0.77;;
20857;SDS011;10589;53.636;10.012;2023-04-25T16:08:06;3.73;;;1.00;;
20857;SDS011;10589;53.636;10.012;2023-04-25T16:10:32;11.57;;;1.53;;
20857;SDS011;10589;53.636;10.012;2023-04-25T16:12:57;5.57;;;1.20;;
20857;SDS011;10589;53.636;10.012;2023-04-25T16:15:23;4.37;;;1.07;;
20857;SDS011;10589;53.636;10.012;2023-04-25T16:17:49;4.10;;;1.27;;
20857;SDS011;10589;53.636;10.012;2023-04-25T16:20:15;8.43;;;1.07;;
20857;SDS011;10589;53.636;10.012;2023-04-25T16:22:41;8.00;;;1.27;;
20857;SDS011;10589;53.636;10.012;2023-04-25T16:25:08;8.10;;;1.20;;
20857;SDS011;10589;53.636;10.012;2023-04-25T16:27:34;3.67;;;0.83;;
20857;SDS011;10589;53.636;10.012;2023-04-25T16:30:00;7.20;;;1.40;;
20857;SDS011;10589;53.636;10.012;2023-04-25T16:32:26;5.83;;;0.90;;
20857;SDS011;10589;53.636;10.012;2023-04-25T16:34:52;6.10;;;1.20;;
20857;SDS011;10589;53.636;10.012;2023-04-25T16:37:17;5.37;;;1.30;;
20857;SDS011;10589;53.636;10.012;2023-04-25T16:39:43;9.53;;;1.50;;
20857;SDS011;10589;53.636;10.012;2023-04-25T16:42:09;8.47;;;1.40;;
20857;SDS011;10589;53.636;10.012;2023-04-25T16:44:34;12.37;;;1.57;;
20857;SDS011;10589;53.636;10.012;2023-04-25T16:47:00;9.00;;;1.10;;
20857;SDS011;10589;53.636;10.012;2023-04-25T16:49:26;4.80;;;0.77;;
20857;SDS011;10589;53.636;10.012;2023-04-25T16:51:52;4.27;;;0.70;;
20857;SDS011;10589;53.636;10.012;2023-04-25T16:54:18;7.20;;;1.10;;
20857;SDS011;10589;53.636;10.012;2023-04-25T16:56:43;4.07;;;0.60;;
20857;SDS011;10589;53.636;10.012;2023-04-25T16:59:09;5.47;;;1.23;;
20857;SDS011;10589;53.636;10.012;2023-04-25T17:01:34;6.27;;;1.10;;
20857;SDS011;10589;53.636;10.012;2023-04-25T17:04:00;5.10;;;1.03;;
20857;SDS011;10589;53.636;10.012;2023-04-25T17:06:26;3.80;;;1.10;;
20857;SDS011;10589;53.636;10.012;2023-04-25T17:08:53;6.43;;;1.10;;
20857;SDS011;10589;53.636;10.012;2023-04-25T17:11:19;6.30;;;0.90;;
20857;SDS011;10589;53.636;10.012;2023-04-25T17:13:44;7.07;;;1.10;;
20857;SDS011;10589;53.636;10.012;2023-04-25T17:16:10;3.40;;;0.93;;
20857;SDS011;10589;53.636;10.012;2023-04-25T17:18:40;6.27;;;1.23;;
20857;SDS011;10589;53.636;10.012;2023-04-25T17:21:07;3.90;;;1.00;;
20857;SDS011;10589;53.636;10.012;2023-04-25T17:23:33;5.97;;;1.20;;
20857;SDS011;10589;53.636;10.012;2023-04-25T17:25:59;4.60;;;0.83;;
20857;SDS011;10589;53.636;10.012;2023-04-25T17:28:26;5.37;;;1.00;;
20857;SDS011;10589;53.636;10.012;2023-04-25T17:30:52;5.53;;;1.00;;
20857;SDS011;10589;53.636;10.012;2023-04-25T17:33:17;5.87;;;1.00;;
20857;SDS011;10589;53.636;10.012;2023-04-25T17:35:43;3.77;;;0.97;;
20857;SDS011;10589;53.636;10.012;2023-04-25T17:38:08;10.63;;;1.40;;
20857;SDS011;10589;53.636;10.012;2023-04-25T17:40:34;4.97;;;1.27;;
20857;SDS011;10589;53.636;10.012;2023-04-25T17:42:59;5.03;;;1.23;;
20857;SDS011;10589;53.636;10.012;2023-04-25T17:45:25;7.60;;;1.30;;
20857;SDS011;10589;53.636;10.012;2023-04-25T17:47:52;6.70;;;1.40;;
20857;SDS011;10589;53.636;10.012;2023-04-25T17:50:17;4.37;;;1.10;;
20857;SDS011;10589;53.636;10.012;2023-04-25T17:52:43;8.73;;;1.47;;
20857;SDS011;10589;53.636;10.012;2023-04-25T17:55:11;6.27;;;1.67;;
20857;SDS011;10589;53.636;10.012;2023-04-25T17:57:38;5.87;;;1.30;;
20857;SDS011;10589;53.636;10.012;2023-04-25T18:00:04;7.27;;;1.37;;
20857;SDS011;10589;53.636;10.012;2023-04-25T18:02:31;9.30;;;1.63;;
20857;SDS011;10589;53.636;10.012;2023-04-25T18:04:57;5.43;;;1.27;;
20857;SDS011;10589;53.636;10.012;2023-04-25T18:07:22;7.30;;;1.20;;
20857;SDS011;10589;53.636;10.012;2023-04-25T18:09:48;6.53;;;1.17;;
20857;SDS011;10589;53.636;10.012;2023-04-25T18:12:14;4.73;;;1.13;;
20857;SDS011;10589;53.636;10.012;2023-04-25T18:14:39;9.27;;;1.50;;
20857;SDS011;10589;53.636;10.012;2023-04-25T18:17:05;7.17;;;0.97;;
20857;SDS011;10589;53.636;10.012;2023-04-25T18:19:32;7.33;;;1.40;;
20857;SDS011;10589;53.636;10.012;2023-04-25T18:21:59;12.87;;;1.80;;
20857;SDS011;10589;53.636;10.012;2023-04-25T18:24:25;8.90;;;1.60;;
20857;SDS011;10589;53.636;10.012;2023-04-25T18:26:52;8.40;;;1.90;;